Time;durP1;ratioP1;P1;durP2;ratioP2;P2;SDS_P1;SDS_P2;PMS_P1;PMS_P2;Temp;Humidity;BMP_temperature;BMP_pressure;BME280_temperature;BME280_humidity;BME280_pressure;Samples;Min_cycle;Max_cycle;Signal;HPM_P1;HPM_P2
2021/12/12 00:01:38;;;;;;;30.85;16.27;;;4.80;99.90;;;;;;5022757;28;20484;-83
2021/12/12 00:04:13;;;;;;;29.20;13.97;;;4.80;99.90;;;;;;5043023;28;20029;-80
2021/12/12 00:06:53;;;;;;;29.80;15.63;;;4.80;99.90;;;;;;5020024;28;20061;-77
2021/12/12 00:09:42;;;;;;;29.75;13.45;;;4.90;99.90;;;;;;5048879;28;20037;-77
2021/12/12 00:12:14;;;;;;;35.70;20.27;;;4.90;99.90;;;;;;5016816;28;20396;-78
2021/12/12 00:14:41;;;;;;;33.08;17.40;;;4.90;99.90;;;;;;5022682;28;20025;-78
2021/12/12 00:17:09;;;;;;;35.70;16.98;;;4.90;99.90;;;;;;5020776;28;20029;-77
2021/12/12 00:19:36;;;;;;;38.95;19.75;;;4.90;99.90;;;;;;5043740;28;20489;-78
2021/12/12 00:22:08;;;;;;;42.83;20.33;;;4.90;99.90;;;;;;5034867;28;20517;-79
2021/12/12 00:24:37;;;;;;;56.92;24.17;;;4.90;99.90;;;;;;5031767;28;20029;-78
2021/12/12 00:27:04;;;;;;;34.13;18.27;;;4.90;99.90;;;;;;5035337;28;20091;-79
2021/12/12 00:29:35;;;;;;;29.95;16.05;;;4.90;99.90;;;;;;5020809;28;20407;-79
2021/12/12 00:32:10;;;;;;;31.05;15.20;;;4.90;99.90;;;;;;5021272;28;20492;-80
2021/12/12 00:34:50;;;;;;;28.85;15.02;;;4.90;99.90;;;;;;5038118;28;20041;-80
2021/12/12 00:37:18;;;;;;;31.27;13.15;;;4.90;99.90;;;;;;5053672;28;20029;-81
2021/12/12 00:39:50;;;;;;;29.13;14.52;;;4.90;99.90;;;;;;5055886;28;20025;-81
2021/12/12 00:42:19;;;;;;;;;;;4.90;99.90;;;;;;5017729;28;20033;-80
2021/12/12 00:44:51;;;;;;;26.13;12.10;;;4.90;99.90;;;;;;5051847;28;20402;-82
2021/12/12 00:47:18;;;;;;;26.95;13.27;;;4.90;99.90;;;;;;5054426;28;20039;-78
2021/12/12 00:49:46;;;;;;;25.48;13.05;;;5.00;99.90;;;;;;5024803;28;20032;-80
2021/12/12 00:52:14;;;;;;;29.30;13.65;;;5.00;99.90;;;;;;5023019;28;20033;-80
2021/12/12 00:54:42;;;;;;;29.48;13.38;;;5.00;99.90;;;;;;5052219;28;20028;-80
2021/12/12 00:57:14;;;;;;;23.77;12.00;;;5.00;99.90;;;;;;5037198;28;20510;-80
2021/12/12 00:59:41;;;;;;;26.58;11.38;;;5.00;99.90;;;;;;5013806;28;20511;-80
2021/12/12 01:02:12;;;;;;;25.05;11.43;;;5.00;99.90;;;;;;4989213;28;20048;-79
2021/12/12 01:04:43;;;;;;;22.00;11.63;;;5.00;99.90;;;;;;5053837;28;20047;-80
2021/12/12 01:07:14;;;;;;;24.15;11.25;;;5.00;99.90;;;;;;5055061;28;20483;-80
2021/12/12 01:09:51;;;;;;;32.38;13.70;;;5.10;99.90;;;;;;5020832;28;20368;-80
2021/12/12 01:12:25;;;;;;;20.98;11.40;;;5.10;99.90;;;;;;5020897;28;20048;-81
2021/12/12 01:14:57;;;;;;;26.23;11.55;;;5.10;99.90;;;;;;5019698;28;20368;-79
2021/12/12 01:17:32;;;;;;;22.63;9.93;;;5.10;99.90;;;;;;5041902;28;20043;-79
2021/12/12 01:20:09;;;;;;;19.00;9.27;;;5.10;99.90;;;;;;5036659;28;20281;-79
2021/12/12 01:22:38;;;;;;;27.20;11.18;;;5.10;99.90;;;;;;5049635;28;20037;-79
2021/12/12 01:25:34;;;;;;;24.58;11.35;;;5.10;99.90;;;;;;5041096;28;20044;-79
2021/12/12 01:28:02;;;;;;;23.42;10.80;;;5.10;99.90;;;;;;5021468;28;20459;-78
2021/12/12 01:30:30;;;;;;;17.23;8.50;;;5.10;99.90;;;;;;5019620;28;20041;-80
2021/12/12 01:32:58;;;;;;;21.25;8.90;;;5.10;99.90;;;;;;5039364;28;20044;-80
2021/12/12 01:35:26;;;;;;;21.13;9.98;;;5.20;99.90;;;;;;5039109;28;20037;-79
2021/12/12 01:40:49;;;;;;;;;;;5.20;99.90;;;;;;5037783;28;20037;-81
2021/12/12 01:43:56;;;;;;;28.17;9.77;;;5.20;99.90;;;;;;5036364;28;19905;-80
2021/12/12 01:46:31;;;;;;;19.77;8.35;;;5.20;99.90;;;;;;5024208;28;20480;-80
2021/12/12 01:49:05;;;;;;;20.45;8.20;;;5.20;99.90;;;;;;5021112;28;20594;-79
2021/12/12 01:51:32;;;;;;;16.90;7.60;;;5.20;99.90;;;;;;5019260;28;20500;-79
2021/12/12 01:54:03;;;;;;;22.60;8.00;;;5.20;99.90;;;;;;5054925;28;20033;-80
2021/12/12 01:56:49;;;;;;;20.23;8.52;;;5.20;99.90;;;;;;5019983;28;20033;-80
2021/12/12 01:59:20;;;;;;;16.77;7.57;;;5.20;99.90;;;;;;5035028;28;20032;-80
2021/12/12 02:02:01;;;;;;;30.05;8.65;;;5.20;99.90;;;;;;5054491;28;20029;-80
2021/12/12 02:04:32;;;;;;;25.15;9.35;;;5.20;99.90;;;;;;5039750;28;20036;-80
2021/12/12 02:07:00;;;;;;;23.77;9.45;;;5.20;99.90;;;;;;5021583;28;20024;-80
2021/12/12 02:09:26;;;;;;;20.83;8.52;;;5.10;99.90;;;;;;5019924;28;20059;-80
2021/12/12 02:11:56;;;;;;;20.95;8.32;;;5.20;99.90;;;;;;5019746;28;20026;-81
2021/12/12 02:14:23;;;;;;;21.10;8.30;;;5.10;99.90;;;;;;5018435;28;20582;-81
2021/12/12 02:16:56;;;;;;;22.58;7.95;;;5.10;99.90;;;;;;5016196;28;20476;-81
2021/12/12 02:19:31;;;;;;;31.52;9.23;;;5.10;99.90;;;;;;5011050;28;20040;-81
2021/12/12 02:35:07;;;;;;;18.92;7.88;;;5.10;99.90;;;;;;5034036;28;20045;-81
2021/12/12 02:35:48;;;;;;;24.85;10.60;;;5.10;99.90;;;;;;5020743;28;20044;-80
2021/12/12 02:38:24;;;;;;;18.33;7.97;;;5.10;99.90;;;;;;5037928;28;20051;-80
2021/12/12 02:40:59;;;;;;;20.90;8.38;;;5.10;99.90;;;;;;5035435;28;20470;-79
2021/12/12 02:43:29;;;;;;;20.90;9.48;;;5.10;99.90;;;;;;5022173;28;20044;-79
2021/12/12 02:45:57;;;;;;;22.55;9.15;;;5.10;99.90;;;;;;5017826;28;20388;-79
2021/12/12 02:48:27;;;;;;;24.02;9.95;;;5.10;99.90;;;;;;5018996;28;20048;-79
2021/12/12 02:50:55;;;;;;;21.25;9.25;;;5.10;99.90;;;;;;5054428;28;20033;-79
2021/12/12 02:53:36;;;;;;;17.27;7.43;;;5.20;99.90;;;;;;5022246;28;20055;-79
2021/12/12 02:56:07;;;;;;;19.63;7.00;;;5.20;99.90;;;;;;5024482;28;20044;-79
2021/12/12 02:58:37;;;;;;;23.45;8.40;;;5.20;99.90;;;;;;5035979;28;20032;-80
2021/12/12 03:01:07;;;;;;;19.95;9.23;;;5.20;99.90;;;;;;5039175;28;20037;-79
2021/12/12 03:03:36;;;;;;;41.95;12.15;;;5.20;99.90;;;;;;5022633;28;20044;-79
2021/12/12 03:06:08;;;;;;;30.98;9.95;;;5.20;99.90;;;;;;4999288;28;20059;-79
2021/12/12 03:08:39;;;;;;;21.38;8.70;;;5.20;99.90;;;;;;5040717;28;20045;-79
2021/12/12 03:11:06;;;;;;;31.98;10.55;;;5.20;99.90;;;;;;5027590;28;20365;-79
2021/12/12 03:13:33;;;;;;;22.00;9.20;;;5.20;99.90;;;;;;5057535;28;20455;-79
2021/12/12 03:16:00;;;;;;;22.88;9.77;;;5.20;99.90;;;;;;5036437;28;20032;-79
2021/12/12 03:18:32;;;;;;;25.35;8.95;;;5.20;99.90;;;;;;5035904;28;20049;-79
2021/12/12 03:21:14;;;;;;;20.90;7.88;;;5.20;99.90;;;;;;5025825;28;20393;-79
2021/12/12 03:23:44;;;;;;;18.70;7.68;;;5.20;99.90;;;;;;5021027;28;20393;-78
2021/12/12 03:26:13;;;;;;;28.63;9.25;;;5.30;99.90;;;;;;5035417;28;20037;-78
2021/12/12 03:28:43;;;;;;;25.13;9.45;;;5.30;99.90;;;;;;5051384;28;20032;-79
2021/12/12 03:31:14;;;;;;;21.73;8.32;;;5.30;99.90;;;;;;5037816;28;20044;-79
2021/12/12 03:33:41;;;;;;;26.58;9.57;;;5.30;99.90;;;;;;5035315;28;20392;-79
2021/12/12 03:36:11;;;;;;;18.70;7.95;;;5.30;99.90;;;;;;5001228;28;20059;-79
2021/12/12 03:38:41;;;;;;;23.95;9.18;;;5.30;99.90;;;;;;5039557;28;20036;-79
2021/12/12 03:41:12;;;;;;;29.27;12.77;;;5.30;99.90;;;;;;5036778;28;20041;-78
2021/12/12 03:43:39;;;;;;;22.10;9.23;;;5.30;99.90;;;;;;5050656;28;20049;-79
2021/12/12 03:46:10;;;;;;;28.08;11.80;;;5.30;99.90;;;;;;5022101;28;20135;-79
2021/12/12 03:48:40;;;;;;;22.25;8.93;;;5.40;99.90;;;;;;5052823;28;20044;-79
2021/12/12 03:51:10;;;;;;;17.98;9.00;;;5.30;99.90;;;;;;5030942;28;20361;-79
2021/12/12 03:53:38;;;;;;;23.42;10.38;;;5.40;99.90;;;;;;4996205;28;20048;-79
2021/12/12 03:56:08;;;;;;;26.17;10.75;;;5.40;99.90;;;;;;5015421;28;20037;-79
2021/12/12 03:58:35;;;;;;;24.15;11.27;;;5.40;99.90;;;;;;5019638;28;20033;-79
2021/12/12 04:01:08;;;;;;;17.65;9.85;;;5.40;99.90;;;;;;5004367;28;20041;-79
2021/12/12 04:03:35;;;;;;;28.55;10.25;;;5.40;99.90;;;;;;5036341;28;20036;-79
2021/12/12 04:06:05;;;;;;;16.50;9.93;;;5.40;99.90;;;;;;5055286;28;20048;-79
2021/12/12 04:08:36;;;;;;;20.45;9.77;;;5.40;99.90;;;;;;5047901;28;20044;-79
2021/12/12 04:11:06;;;;;;;19.40;9.05;;;5.50;99.90;;;;;;5034000;28;20040;-80
2021/12/12 04:13:44;;;;;;;18.65;10.77;;;5.50;99.90;;;;;;5019018;28;20041;-80
2021/12/12 04:16:12;;;;;;;15.90;9.32;;;5.50;99.90;;;;;;5059346;28;20037;-80
2021/12/12 04:18:38;;;;;;;18.55;9.05;;;5.50;99.90;;;;;;5000474;28;20447;-80
2021/12/12 04:21:05;;;;;;;17.15;9.18;;;5.50;99.90;;;;;;5019362;28;20033;-80
2021/12/12 04:23:32;;;;;;;17.95;9.93;;;5.50;99.90;;;;;;5025826;28;20029;-80
2021/12/12 04:26:30;;;;;;;20.55;8.85;;;5.50;99.90;;;;;;5034616;28;20033;-80
2021/12/12 04:29:06;;;;;;;13.23;8.02;;;5.50;99.90;;;;;;5023239;28;20051;-80
2021/12/12 04:31:34;;;;;;;14.88;8.15;;;5.50;99.90;;;;;;5041175;28;20057;-80
2021/12/12 04:34:02;;;;;;;12.73;8.18;;;5.50;99.90;;;;;;4994900;28;20618;-80
2021/12/12 04:36:33;;;;;;;23.90;11.65;;;5.60;99.90;;;;;;5022790;28;20033;-80
2021/12/12 04:39:27;;;;;;;12.10;7.90;;;5.60;99.90;;;;;;5026201;28;20494;-80
2021/12/12 04:42:04;;;;;;;22.52;10.73;;;5.60;99.90;;;;;;5037980;28;20045;-81
2021/12/12 04:44:35;;;;;;;21.98;11.32;;;5.60;99.90;;;;;;5021436;28;20037;-80
2021/12/12 04:50:17;;;;;;;12.05;8.52;;;5.60;99.90;;;;;;5050332;28;20037;-80
2021/12/12 04:52:51;;;;;;;15.23;8.73;;;5.60;99.90;;;;;;5033621;28;20511;-80
2021/12/12 04:55:29;;;;;;;18.73;9.38;;;5.60;99.90;;;;;;5023530;28;20044;-80
2021/12/12 04:58:12;;;;;;;12.07;9.18;;;5.60;99.90;;;;;;5058316;28;20062;-80
2021/12/12 05:01:20;;;;;;;15.75;9.13;;;5.60;99.90;;;;;;5054443;28;20044;-81
2021/12/12 05:04:26;;;;;;;14.02;7.85;;;5.60;99.90;;;;;;5035278;28;20488;-80
2021/12/12 05:07:08;;;;;;;23.98;13.75;;;5.70;99.90;;;;;;5058141;28;20051;-79
2021/12/12 05:09:46;;;;;;;23.10;12.30;;;5.70;99.90;;;;;;5042555;28;20051;-82
2021/12/12 05:12:21;;;;;;;13.75;8.82;;;5.70;99.90;;;;;;5029622;28;20028;-82
2021/12/12 05:14:56;;;;;;;16.05;8.88;;;5.70;99.90;;;;;;5021289;28;20132;-81
2021/12/12 05:17:31;;;;;;;15.43;9.05;;;5.70;99.90;;;;;;5063254;28;20036;-81
2021/12/12 05:20:02;;;;;;;14.25;9.30;;;5.70;99.90;;;;;;5055006;28;20048;-81
2021/12/12 05:22:41;;;;;;;17.17;9.65;;;5.80;99.90;;;;;;5028318;28;20036;-82
2021/12/12 05:25:14;;;;;;;15.75;9.15;;;5.80;99.90;;;;;;5050180;28;20052;-83
2021/12/12 05:27:43;;;;;;;18.95;10.48;;;5.80;99.90;;;;;;5052826;28;20431;-82
2021/12/12 05:30:17;;;;;;;17.30;9.82;;;5.80;99.90;;;;;;5041945;28;20043;-80
2021/12/12 05:32:44;;;;;;;16.70;10.18;;;5.80;99.90;;;;;;5040927;28;20043;-81
2021/12/12 05:35:12;;;;;;;14.43;9.30;;;5.80;99.90;;;;;;5028956;28;20103;-81
2021/12/12 05:37:40;;;;;;;15.80;9.63;;;5.80;99.90;;;;;;5009792;28;20041;-80
2021/12/12 05:40:11;;;;;;;21.35;11.45;;;5.90;99.90;;;;;;5016913;28;20033;-79
2021/12/12 05:42:38;;;;;;;13.50;8.27;;;5.80;99.90;;;;;;5037364;28;20484;-79
2021/12/12 05:45:07;;;;;;;18.17;9.80;;;5.90;99.90;;;;;;5059864;28;20055;-79
2021/12/12 05:47:35;;;;;;;14.70;8.10;;;5.90;99.90;;;;;;5050400;28;20033;-79
2021/12/12 05:50:05;;;;;;;13.95;8.10;;;5.90;99.90;;;;;;5027359;28;20037;-81
2021/12/12 05:52:32;;;;;;;14.23;9.38;;;5.90;99.90;;;;;;5023684;28;20488;-79
2021/12/12 05:55:02;;;;;;;13.57;10.07;;;5.90;99.90;;;;;;5057426;28;20044;-81
2021/12/12 05:57:30;;;;;;;16.90;10.98;;;5.90;99.90;;;;;;5056245;28;20036;-81
2021/12/12 05:59:58;;;;;;;16.27;10.77;;;6.00;99.90;;;;;;5026979;28;20052;-80
2021/12/12 06:02:26;;;;;;;14.50;9.07;;;6.00;99.90;;;;;;5041259;28;20043;-80
2021/12/12 06:04:57;;;;;;;11.63;8.18;;;6.00;99.90;;;;;;5019970;28;20048;-81
2021/12/12 06:07:25;;;;;;;10.65;8.02;;;6.00;99.90;;;;;;5023831;28;20060;-81
2021/12/12 06:09:52;;;;;;;13.13;9.27;;;6.10;99.90;;;;;;5038535;28;20079;-79
2021/12/12 06:12:20;;;;;;;27.63;13.27;;;6.10;99.90;;;;;;5022563;28;20483;-79
2021/12/12 06:14:47;;;;;;;17.92;10.60;;;6.10;99.90;;;;;;5024496;28;20038;-80
2021/12/12 06:17:17;;;;;;;14.10;11.43;;;6.10;99.90;;;;;;5026606;28;20392;-80
2021/12/12 06:19:45;;;;;;;18.88;11.90;;;6.20;99.90;;;;;;5039272;28;20040;-79
2021/12/12 06:22:12;;;;;;;15.27;11.60;;;6.10;99.90;;;;;;5051722;28;20475;-79
2021/12/12 06:24:40;;;;;;;22.80;14.52;;;6.20;99.90;;;;;;5015990;28;20044;-78
2021/12/12 06:27:11;;;;;;;19.33;12.55;;;6.20;99.90;;;;;;5000281;28;20049;-78
2021/12/12 06:29:38;;;;;;;18.23;14.00;;;6.20;99.90;;;;;;5020555;28;20032;-78
2021/12/12 06:32:05;;;;;;;22.08;15.15;;;6.30;99.90;;;;;;5022879;28;20037;-79
2021/12/12 06:34:32;;;;;;;20.25;15.35;;;6.30;99.90;;;;;;5019400;28;20468;-79
2021/12/12 06:36:59;;;;;;;18.67;14.20;;;6.20;99.90;;;;;;5015633;28;20467;-78
2021/12/12 06:39:25;;;;;;;18.92;12.93;;;6.30;99.90;;;;;;5051631;28;20055;-79
2021/12/12 06:41:52;;;;;;;21.55;14.18;;;6.30;99.90;;;;;;5018539;28;20411;-79
2021/12/12 06:44:19;;;;;;;21.85;14.60;;;6.30;99.90;;;;;;5058209;28;20051;-79
2021/12/12 06:46:46;;;;;;;41.22;21.10;;;6.30;99.90;;;;;;5018493;28;20044;-78
2021/12/12 06:49:16;;;;;;;20.50;14.23;;;6.30;99.90;;;;;;5047364;28;20047;-78
2021/12/12 06:51:50;;;;;;;20.52;14.25;;;6.40;99.90;;;;;;5046394;28;20028;-81
2021/12/12 06:54:20;;;;;;;18.65;12.27;;;6.40;99.90;;;;;;5037797;28;20036;-81
2021/12/12 06:56:49;;;;;;;16.48;11.80;;;6.40;99.90;;;;;;5022134;28;20040;-81
2021/12/12 06:59:16;;;;;;;19.63;12.48;;;6.40;99.90;;;;;;5036041;28;20025;-81
2021/12/12 07:01:43;;;;;;;19.08;13.25;;;6.40;99.90;;;;;;5046142;28;20044;-81
2021/12/12 07:04:13;;;;;;;18.38;12.07;;;6.50;99.90;;;;;;5061767;28;20472;-81
2021/12/12 07:06:40;;;;;;;19.55;14.07;;;6.50;99.90;;;;;;5025746;28;20041;-82
2021/12/12 07:09:09;;;;;;;18.85;12.90;;;6.50;99.90;;;;;;5021079;28;20060;-82
2021/12/12 07:11:38;;;;;;;21.13;12.57;;;6.50;99.90;;;;;;5022185;28;20754;-81
2021/12/12 07:14:07;;;;;;;22.13;13.90;;;6.50;99.90;;;;;;5030185;28;20047;-81
2021/12/12 07:16:34;;;;;;;23.73;14.90;;;6.50;99.90;;;;;;5021855;28;20040;-81
2021/12/12 07:19:02;;;;;;;23.05;14.18;;;6.50;99.90;;;;;;5023843;28;20033;-81
2021/12/12 07:21:30;;;;;;;24.25;14.23;;;6.50;99.90;;;;;;5041449;28;20518;-82
2021/12/12 07:24:00;;;;;;;21.80;13.73;;;6.50;99.90;;;;;;5039853;28;20037;-79
2021/12/12 07:26:28;;;;;;;21.92;13.25;;;6.60;99.90;;;;;;5020513;28;20052;-79
2021/12/12 07:28:57;;;;;;;27.50;14.80;;;6.60;99.90;;;;;;5030136;28;20045;-80
2021/12/12 07:31:27;;;;;;;33.95;15.95;;;6.60;99.90;;;;;;5017387;28;20025;-77
2021/12/12 07:33:57;;;;;;;30.23;16.27;;;6.60;99.90;;;;;;5014301;28;20756;-77
2021/12/12 07:36:25;;;;;;;27.88;15.35;;;6.60;99.90;;;;;;5044599;28;20037;-83
2021/12/12 07:38:55;;;;;;;45.97;19.15;;;6.60;99.90;;;;;;5020763;28;20033;-86
2021/12/12 07:41:24;;;;;;;28.25;14.25;;;6.70;99.90;;;;;;5017109;28;20507;-82
2021/12/12 07:43:55;;;;;;;26.63;17.23;;;6.70;99.90;;;;;;5017484;28;20060;-84
2021/12/12 07:46:22;;;;;;;29.52;15.35;;;6.70;99.90;;;;;;5035659;28;20037;-83
2021/12/12 07:48:51;;;;;;;26.17;15.50;;;6.70;99.90;;;;;;4998710;28;20045;-82
2021/12/12 07:51:23;;;;;;;39.17;16.13;;;6.70;99.90;;;;;;5014810;28;20033;-81
2021/12/12 07:53:55;;;;;;;35.28;17.38;;;6.80;99.90;;;;;;5018139;28;20040;-82
2021/12/12 07:56:23;;;;;;;32.10;16.73;;;6.80;99.90;;;;;;5021010;28;20029;-83
2021/12/12 07:58:50;;;;;;;30.85;16.80;;;6.80;99.90;;;;;;5016282;28;20041;-82
2021/12/12 08:01:20;;;;;;;23.40;13.63;;;6.80;99.90;;;;;;5018663;28;20495;-82
2021/12/12 08:03:47;;;;;;;31.25;14.25;;;6.80;99.90;;;;;;5037003;28;20480;-83
2021/12/12 08:06:15;;;;;;;24.85;13.85;;;6.90;99.90;;;;;;4992391;28;20041;-83
2021/12/12 08:08:42;;;;;;;25.80;14.00;;;6.90;99.90;;;;;;5031818;28;20037;-84
2021/12/12 08:11:10;;;;;;;35.22;18.42;;;6.90;99.90;;;;;;5031835;28;20328;-86
2021/12/12 08:13:39;;;;;;;42.92;18.58;;;6.90;99.90;;;;;;5012194;28;20047;-85
2021/12/12 08:16:08;;;;;;;34.05;16.65;;;7.00;99.90;;;;;;5024974;28;20495;-83
2021/12/12 08:18:38;;;;;;;23.65;14.63;;;7.00;99.90;;;;;;5034107;28;20043;-83
2021/12/12 08:21:06;;;;;;;31.92;14.82;;;7.00;99.90;;;;;;5050989;28;20035;-82
2021/12/12 08:23:35;;;;;;;37.13;16.25;;;7.00;99.90;;;;;;5012729;28;20037;-83
2021/12/12 08:26:05;;;;;;;34.55;18.00;;;7.00;99.90;;;;;;5047710;28;20037;-83
2021/12/12 08:28:34;;;;;;;28.92;15.40;;;7.10;99.90;;;;;;5008144;28;20041;-83
2021/12/12 08:31:01;;;;;;;40.60;17.98;;;7.10;99.90;;;;;;5032012;28;20045;-75
2021/12/12 08:33:29;;;;;;;40.28;17.50;;;7.10;99.90;;;;;;5056511;28;20395;-78
2021/12/12 08:35:57;;;;;;;77.53;26.15;;;7.10;99.90;;;;;;5026156;28;20036;-75
2021/12/12 08:38:24;;;;;;;48.55;18.83;;;7.20;99.90;;;;;;5032381;28;20051;-77
2021/12/12 08:40:55;;;;;;;45.55;18.75;;;7.20;99.90;;;;;;5040921;28;20041;-81
2021/12/12 08:43:24;;;;;;;58.47;21.42;;;7.20;99.90;;;;;;5016521;28;20029;-80
2021/12/12 08:45:56;;;;;;;39.42;19.05;;;7.20;99.90;;;;;;5001442;28;20620;-79
2021/12/12 08:48:27;;;;;;;25.58;13.95;;;7.20;99.90;;;;;;5020621;28;20480;-79
2021/12/12 08:51:00;;;;;;;53.15;18.42;;;7.30;99.90;;;;;;5032452;28;20036;-80
2021/12/12 08:53:27;;;;;;;41.72;18.80;;;7.30;99.90;;;;;;5047941;28;20408;-80
2021/12/12 08:55:56;;;;;;;33.63;15.90;;;7.30;99.90;;;;;;5017591;28;20029;-80
2021/12/12 08:58:26;;;;;;;33.40;16.42;;;7.40;99.90;;;;;;5049009;28;20025;-80
2021/12/12 09:00:56;;;;;;;59.40;20.33;;;7.40;99.90;;;;;;5032563;28;20025;-78
2021/12/12 09:03:36;;;;;;;35.55;15.95;;;7.40;99.90;;;;;;5049114;28;20467;-76
2021/12/12 09:06:38;;;;;;;41.53;16.50;;;7.40;99.90;;;;;;5009800;28;20029;-77
2021/12/12 09:09:12;;;;;;;55.10;20.13;;;7.50;99.90;;;;;;5028566;28;20041;-78
2021/12/12 09:11:47;;;;;;;41.78;19.00;;;7.40;99.90;;;;;;5015453;28;20037;-79
2021/12/12 09:14:20;;;;;;;40.28;17.23;;;7.50;99.90;;;;;;5019468;28;20055;-81
2021/12/12 09:16:55;;;;;;;57.70;19.98;;;7.50;99.90;;;;;;5018085;28;20392;-81
2021/12/12 09:19:28;;;;;;;39.95;17.27;;;7.50;99.90;;;;;;5016434;28;20368;-81
2021/12/12 09:22:01;;;;;;;36.95;17.30;;;7.50;99.90;;;;;;5013374;28;20494;-80
2021/12/12 09:24:30;;;;;;;43.50;18.38;;;7.60;99.90;;;;;;5050038;28;20473;-79
2021/12/12 09:27:08;;;;;;;43.50;18.25;;;7.60;99.90;;;;;;5018734;28;20412;-82
2021/12/12 09:29:50;;;;;;;56.33;21.45;;;7.60;99.90;;;;;;5037587;28;20051;-82
2021/12/12 09:32:43;;;;;;;46.10;19.30;;;7.60;99.90;;;;;;5035048;28;20037;-80
2021/12/12 09:35:43;;;;;;;39.38;18.60;;;7.70;99.90;;;;;;5034948;28;20044;-82
2021/12/12 09:38:12;;;;;;;27.48;16.13;;;7.70;99.90;;;;;;5014823;28;20037;-81
2021/12/12 09:40:56;;;;;;;42.53;18.75;;;7.70;99.90;;;;;;5018009;28;20389;-81
2021/12/12 09:43:55;;;;;;;48.70;21.67;;;7.70;99.90;;;;;;5035264;28;20036;-80
2021/12/12 09:46:40;;;;;;;49.17;20.45;;;7.80;99.90;;;;;;5049244;28;20032;-79
2021/12/12 09:52:33;;;;;;;42.03;19.50;;;7.80;99.90;;;;;;5030572;28;20361;-79
2021/12/12 09:55:18;;;;;;;46.85;18.63;;;7.80;99.90;;;;;;5020271;28;20045;-80
2021/12/12 09:58:07;;;;;;;48.45;18.67;;;7.80;99.90;;;;;;5033685;28;20041;-82
2021/12/12 10:00:41;;;;;;;49.50;24.13;;;7.90;99.90;;;;;;5020745;28;20051;-81
2021/12/12 10:03:14;;;;;;;48.33;21.35;;;7.90;99.90;;;;;;5017902;28;20048;-82
2021/12/12 10:05:50;;;;;;;;;;;7.90;99.90;;;;;;5032948;28;20033;-81
2021/12/12 10:08:41;;;;;;;46.67;21.52;;;7.90;99.90;;;;;;5032742;28;19917;-82
2021/12/12 10:11:16;;;;;;;55.45;21.10;;;8.00;99.90;;;;;;5017161;28;20037;-82
2021/12/12 10:14:04;;;;;;;51.17;19.67;;;8.00;99.90;;;;;;5030993;28;20041;-83
2021/12/12 10:16:37;;;;;;;57.72;24.42;;;8.00;99.90;;;;;;5048445;28;20033;-83
2021/12/12 10:19:20;;;;;;;49.88;21.70;;;8.00;99.90;;;;;;5033201;28;20030;-78
2021/12/12 10:22:12;;;;;;;64.53;22.75;;;8.10;99.90;;;;;;5043264;28;20029;-84
2021/12/12 10:25:09;;;;;;;56.38;22.90;;;8.10;99.90;;;;;;5028205;28;20041;-82
2021/12/12 10:27:49;;;;;;;45.20;21.73;;;8.20;99.90;;;;;;5048754;28;20033;-81
2021/12/12 10:30:38;;;;;;;74.82;27.02;;;8.20;99.90;;;;;;5030162;28;20052;-77
2021/12/12 10:33:25;;;;;;;51.20;22.73;;;8.30;99.90;;;;;;5012648;28;20580;-75
2021/12/12 10:35:59;;;;;;;72.95;25.85;;;8.30;99.90;;;;;;5013934;28;20056;-78
2021/12/12 10:38:56;;;;;;;43.00;20.95;;;8.40;99.90;;;;;;5045478;28;20384;-75
2021/12/12 10:41:27;;;;;;;45.30;20.50;;;8.40;99.90;;;;;;5018320;28;20028;-75
2021/12/12 10:44:12;;;;;;;34.08;16.70;;;8.50;99.90;;;;;;5042106;28;20475;-75
2021/12/12 10:46:39;;;;;;;32.60;16.92;;;8.50;99.90;;;;;;5041234;28;20033;-80
2021/12/12 10:49:36;;;;;;;34.40;17.25;;;8.60;99.90;;;;;;5033487;28;20049;-78
2021/12/12 10:52:08;;;;;;;34.70;16.60;;;8.60;99.90;;;;;;5012798;28;20041;-77
2021/12/12 10:54:55;;;;;;;24.80;15.10;;;8.60;99.90;;;;;;5012218;28;20037;-81
2021/12/12 10:57:32;;;;;;;31.02;15.32;;;8.60;99.90;;;;;;5044879;28;20025;-79
2021/12/12 11:00:07;;;;;;;23.13;13.13;;;8.60;99.90;;;;;;5025927;28;20369;-80
2021/12/12 11:02:49;;;;;;;27.85;14.50;;;8.70;99.90;;;;;;5028236;28;20029;-80
2021/12/12 11:05:26;;;;;;;35.88;17.75;;;8.60;99.90;;;;;;5023448;28;20029;-82
2021/12/12 11:08:08;;;;;;;28.23;16.25;;;8.70;99.90;;;;;;5027085;28;20061;-81
2021/12/12 11:10:39;;;;;;;31.95;17.55;;;8.60;99.90;;;;;;5028165;28;20051;-79
2021/12/12 11:13:16;;;;;;;27.52;16.15;;;8.70;99.90;;;;;;5026612;28;20032;-80
2021/12/12 11:15:47;;;;;;;31.80;15.63;;;8.70;99.90;;;;;;5031735;28;20062;-82
2021/12/12 11:18:24;;;;;;;22.35;14.43;;;8.70;99.90;;;;;;5013623;28;20021;-77
2021/12/12 11:21:01;;;;;;;24.40;14.10;;;8.70;99.90;;;;;;5028525;28;20032;-78
2021/12/12 11:23:30;;;;;;;23.42;14.55;;;8.70;99.90;;;;;;5043232;28;20049;-78
2021/12/12 11:26:11;;;;;;;23.70;14.43;;;8.70;99.90;;;;;;5027475;28;20538;-78
2021/12/12 11:28:48;;;;;;;25.17;12.98;;;8.80;99.90;;;;;;5006186;28;20038;-77
2021/12/12 11:31:32;;;;;;;29.90;15.70;;;8.80;99.90;;;;;;5030348;28;20041;-77
2021/12/12 11:34:00;;;;;;;23.55;13.85;;;8.80;99.90;;;;;;5012384;28;20373;-76
2021/12/12 11:36:31;;;;;;;31.70;15.02;;;8.80;99.90;;;;;;5017717;28;20041;-79
2021/12/12 11:39:30;;;;;;;23.58;13.95;;;8.80;99.90;;;;;;5025176;28;20044;-75
2021/12/12 11:42:08;;;;;;;20.23;12.98;;;8.80;99.90;;;;;;5012876;28;20037;-83
2021/12/12 11:44:46;;;;;;;25.58;13.77;;;8.90;99.90;;;;;;5027761;28;20492;-80
2021/12/12 11:47:43;;;;;;;23.27;14.45;;;8.90;99.90;;;;;;5041768;28;20488;-81
2021/12/12 11:50:27;;;;;;;37.38;17.45;;;8.90;99.90;;;;;;5040287;28;20032;-83
2021/12/12 11:53:10;;;;;;;31.17;17.52;;;8.90;99.90;;;;;;5037082;28;20036;-78
2021/12/12 11:55:44;;;;;;;26.23;15.70;;;9.00;99.90;;;;;;5023951;28;20028;-78
2021/12/12 11:58:21;;;;;;;21.98;13.07;;;9.00;99.90;;;;;;5018353;28;20072;-75
2021/12/12 12:01:23;;;;;;;24.05;13.25;;;9.00;99.90;;;;;;5027916;28;20030;-84
2021/12/12 12:03:50;;;;;;;28.75;15.65;;;9.00;99.90;;;;;;5037717;28;20051;-87
2021/12/12 12:06:29;;;;;;;22.88;14.27;;;9.00;99.90;;;;;;5014031;28;20380;-75
2021/12/12 12:09:34;;;;;;;21.02;13.15;;;9.00;99.90;;;;;;5049175;28;20087;-75
2021/12/12 12:12:22;;;;;;;27.63;13.98;;;9.10;99.90;;;;;;5048475;28;20542;-86
2021/12/12 12:15:20;;;;;;;25.42;15.40;;;9.10;99.90;;;;;;5016056;28;20044;-83
2021/12/12 12:17:57;;;;;;;19.88;12.05;;;9.10;99.90;;;;;;5049273;28;20059;-81
2021/12/12 12:20:35;;;;;;;20.15;11.15;;;9.20;99.90;;;;;;5013135;28;20032;-81
2021/12/12 12:23:17;;;;;;;18.52;12.15;;;9.20;99.90;;;;;;5016037;28;20028;-80
2021/12/12 12:29:27;;;;;;;27.92;15.10;;;9.20;99.90;;;;;;5047524;28;20236;-80
2021/12/12 12:32:31;;;;;;;31.48;15.85;;;9.30;99.90;;;;;;5013626;28;20044;-79
2021/12/12 12:35:19;;;;;;;21.58;13.70;;;9.20;99.90;;;;;;5028304;28;20464;-81
2021/12/12 12:38:11;;;;;;;22.23;13.60;;;9.30;99.90;;;;;;5045207;28;20033;-83
2021/12/12 12:41:14;;;;;;;26.95;14.80;;;9.30;99.90;;;;;;5026038;28;20033;-81
2021/12/12 12:43:59;;;;;;;;;;;9.30;99.90;;;;;;5014879;28;20048;-74
2021/12/12 12:47:12;;;;;;;37.10;18.45;;;9.30;99.90;;;;;;5019452;28;20348;-81
2021/12/12 12:50:26;;;;;;;22.90;14.45;;;9.40;99.90;;;;;;5017885;28;20038;-81
2021/12/12 12:53:21;;;;;;;23.35;14.75;;;9.40;99.90;;;;;;5018240;28;20041;-82
2021/12/12 12:56:09;;;;;;;35.65;19.67;;;9.40;99.90;;;;;;5030260;28;20028;-82
2021/12/12 12:58:59;;;;;;;39.70;19.80;;;9.50;99.90;;;;;;5032522;28;20033;-83
2021/12/12 13:02:13;;;;;;;22.77;14.82;;;9.50;99.90;;;;;;5016151;28;20052;-82
2021/12/12 13:05:06;;;;;;;26.48;16.45;;;9.50;99.90;;;;;;5036162;28;20037;-84
2021/12/12 13:07:41;;;;;;;25.17;15.55;;;9.50;99.90;;;;;;5057699;28;20032;-80
2021/12/12 13:10:21;;;;;;;22.85;14.70;;;9.50;99.90;;;;;;5017698;28;20056;-80
2021/12/12 13:13:13;;;;;;;27.95;17.90;;;9.50;99.90;;;;;;5025784;28;20043;-78
2021/12/12 13:15:57;;;;;;;29.30;18.50;;;9.60;99.90;;;;;;5040260;28;20053;-79
2021/12/12 13:18:53;;;;;;;25.40;16.63;;;9.60;99.90;;;;;;5056517;28;20037;-76
2021/12/12 13:21:22;;;;;;;27.00;15.93;;;9.60;99.90;;;;;;5039816;28;20044;-75
2021/12/12 13:24:15;;;;;;;20.38;13.95;;;9.60;99.90;;;;;;5018689;28;20051;-80
2021/12/12 13:27:26;;;;;;;25.15;16.25;;;9.60;99.90;;;;;;5034045;28;20029;-89
2021/12/12 13:30:26;;;;;;;21.48;14.77;;;9.60;99.90;;;;;;5046559;28;20025;-83
2021/12/12 13:33:10;;;;;;;24.33;14.05;;;9.60;99.90;;;;;;5033903;28;20048;-83
2021/12/12 13:36:18;;;;;;;24.17;14.82;;;9.60;99.90;;;;;;5042814;28;20594;-85
2021/12/12 13:39:39;;;;;;;24.67;16.67;;;9.60;99.90;;;;;;5047146;28;20028;-85
2021/12/12 13:42:43;;;;;;;24.65;14.90;;;9.60;99.90;;;;;;5032129;28;20337;-86
2021/12/12 13:45:18;;;;;;;24.40;16.27;;;9.60;99.90;;;;;;5028106;28;20037;-86
2021/12/12 13:48:00;;;;;;;25.50;16.45;;;9.60;99.90;;;;;;5035749;28;20036;-88